createdAt,value
2022-11-23T00:00:45.076Z,20.30
2022-11-23T00:03:25.228Z,19.20
2022-11-23T00:06:17.518Z,23.65
2022-11-23T00:08:55.645Z,21.90
2022-11-23T00:11:29.769Z,20.40
2022-11-23T00:14:13.490Z,22.55
2022-11-23T00:17:02.406Z,21.05
2022-11-23T00:19:39.946Z,20.50
2022-11-23T00:22:30.907Z,21.45
2022-11-23T00:25:09.306Z,19.60
2022-11-23T00:27:50.073Z,20.70
2022-11-23T00:30:43.861Z,20.17
2022-11-23T00:33:27.766Z,19.45
2022-11-23T00:36:18.794Z,20.33
2022-11-23T00:38:59.636Z,20.73
2022-11-23T00:41:34.814Z,20.73
2022-11-23T00:44:21.273Z,19.40
2022-11-23T00:47:06.435Z,19.27
2022-11-23T00:49:47.817Z,17.38
2022-11-23T00:52:44.222Z,17.48
2022-11-23T00:55:24.459Z,17.83
2022-11-23T00:58:08.791Z,17.00
2022-11-23T01:00:47.693Z,17.23
2022-11-23T01:03:32.280Z,17.25
2022-11-23T01:06:31.421Z,18.25
2022-11-23T01:09:12.264Z,18.48
2022-11-23T01:12:01.072Z,16.80
2022-11-23T01:14:42.909Z,16.65
2022-11-23T01:17:24.164Z,16.65
2022-11-23T01:20:02.393Z,17.45
2022-11-23T01:22:55.220Z,16.95
2022-11-23T01:25:42.144Z,15.93
2022-11-23T01:28:23.036Z,15.85
2022-11-23T01:31:06.825Z,16.05
2022-11-23T01:33:47.612Z,17.02
2022-11-23T01:36:29.742Z,16.23
2022-11-23T01:39:16.591Z,15.63
2022-11-23T01:44:44.308Z,14.85
2022-11-23T01:47:22.495Z,16.77
2022-11-23T01:50:01.672Z,16.27
2022-11-23T01:52:49.024Z,18.58
2022-11-23T01:55:35.379Z,17.00
2022-11-23T01:58:25.113Z,16.60
2022-11-23T02:01:09.371Z,16.67
2022-11-23T02:03:54.543Z,17.38
2022-11-23T02:06:38.220Z,18.08
2022-11-23T02:09:16.556Z,18.00
2022-11-23T02:11:49.515Z,16.02
2022-11-23T02:14:41.141Z,15.93
2022-11-23T02:17:22.185Z,16.02
2022-11-23T02:20:18.972Z,17.75
2022-11-23T02:23:19.266Z,16.27
2022-11-23T02:26:09.752Z,17.50
2022-11-23T02:28:52.494Z,16.13
2022-11-23T02:31:30.931Z,18.58
2022-11-23T02:34:23.866Z,17.60
2022-11-23T02:37:11.578Z,17.60
2022-11-23T02:40:02.367Z,18.30
2022-11-23T02:42:51.772Z,16.85
2022-11-23T02:45:39.766Z,17.98
2022-11-23T02:48:31.568Z,19.13
2022-11-23T02:51:18.770Z,19.63
2022-11-23T02:53:59.451Z,18.70
2022-11-23T02:56:46.062Z,16.92
2022-11-23T02:59:35.602Z,19.65
2022-11-23T03:02:26.175Z,18.38
2022-11-23T03:05:12.802Z,19.45
2022-11-23T03:07:59.740Z,17.73
2022-11-23T03:10:42.445Z,17.45
2022-11-23T03:13:31.966Z,17.85
2022-11-23T03:16:17.224Z,19.23
2022-11-23T03:19:04.759Z,18.63
2022-11-23T03:21:57.211Z,17.25
2022-11-23T03:24:50.249Z,17.65
2022-11-23T03:27:47.052Z,17.67
2022-11-23T03:30:24.872Z,19.80
2022-11-23T03:33:14.185Z,17.15
2022-11-23T03:36:01.126Z,17.58
2022-11-23T03:38:48.564Z,15.40
2022-11-23T03:41:50.779Z,15.90
2022-11-23T03:44:36.133Z,16.88
2022-11-23T03:47:22.149Z,16.38
2022-11-23T03:50:07.977Z,18.23
2022-11-23T03:52:46.913Z,17.05
2022-11-23T03:55:27.254Z,16.58
2022-11-23T03:58:08.064Z,17.42
2022-11-23T04:00:49.944Z,18.25
2022-11-23T04:03:34.334Z,17.73
2022-11-23T04:06:29.546Z,16.30
2022-11-23T04:09:24.609Z,17.20
2022-11-23T04:12:23.282Z,15.70
2022-11-23T04:17:52.733Z,14.35
2022-11-23T04:20:28.508Z,15.82
2022-11-23T04:23:13.660Z,13.35
2022-11-23T04:25:54.990Z,14.65
2022-11-23T04:28:39.707Z,12.20
2022-11-23T04:31:25.011Z,12.27
2022-11-23T04:34:17.829Z,12.80
2022-11-23T04:36:55.443Z,12.93
2022-11-23T04:39:39.906Z,12.50
2022-11-23T04:42:43.849Z,11.68
2022-11-23T04:45:27.226Z,11.20
2022-11-23T04:48:09.586Z,11.93
2022-11-23T04:50:49.897Z,11.05
2022-11-23T04:53:36.765Z,12.63
2022-11-23T04:56:16.473Z,11.50
2022-11-23T04:58:52.383Z,11.82
2022-11-23T05:01:39.765Z,12.10
2022-11-23T05:04:42.195Z,11.57
2022-11-23T05:07:27.323Z,12.15
2022-11-23T05:10:07.733Z,11.45
2022-11-23T05:12:54.327Z,12.30
2022-11-23T05:15:40.723Z,12.73
2022-11-23T05:18:20.773Z,12.65
2022-11-23T05:21:01.642Z,11.02
2022-11-23T05:23:40.031Z,11.43
2022-11-23T05:26:33.312Z,12.30
2022-11-23T05:29:23.739Z,11.00
2022-11-23T05:32:10.127Z,11.25
2022-11-23T05:34:55.243Z,11.93
2022-11-23T05:37:38.707Z,11.77
2022-11-23T05:40:22.396Z,12.00
2022-11-23T05:43:10.698Z,12.50
2022-11-23T05:46:16.331Z,12.85
2022-11-23T05:48:54.975Z,11.05
2022-11-23T05:51:32.900Z,10.88
2022-11-23T05:54:09.661Z,11.18
2022-11-23T05:57:06.702Z,11.15
2022-11-23T05:59:56.158Z,11.50
2022-11-23T06:02:55.910Z,10.98
2022-11-23T06:05:35.353Z,11.43
2022-11-23T06:08:22.879Z,12.60
2022-11-23T06:11:08.229Z,12.43
2022-11-23T06:13:52.398Z,13.45
2022-11-23T06:16:30.143Z,15.07
2022-11-23T06:19:19.149Z,13.25
2022-11-23T06:22:02.696Z,14.05
2022-11-23T06:24:44.871Z,14.25
2022-11-23T06:27:49.827Z,13.30
2022-11-23T06:30:44.092Z,15.48
2022-11-23T06:33:25.753Z,15.27
2022-11-23T06:36:10.160Z,14.02
2022-11-23T06:39:08.728Z,14.23
2022-11-23T06:41:46.928Z,14.27
2022-11-23T06:44:41.628Z,15.93
2022-11-23T06:47:40.042Z,15.70
2022-11-23T06:50:25.332Z,14.20
2022-11-23T06:53:12.823Z,15.80
2022-11-23T06:56:19.934Z,19.23
2022-11-23T06:59:02.050Z,16.48
2022-11-23T07:01:59.434Z,16.13
2022-11-23T07:04:46.177Z,15.23
2022-11-23T07:07:33.595Z,16.23
2022-11-23T07:10:37.060Z,15.23
2022-11-23T07:13:25.358Z,13.15
2022-11-23T07:16:13.722Z,14.40
2022-11-23T07:19:05.306Z,14.98
2022-11-23T07:21:45.269Z,17.75
2022-11-23T07:24:32.871Z,14.55
2022-11-23T07:27:18.707Z,11.27
2022-11-23T07:30:04.105Z,12.40
2022-11-23T07:32:51.752Z,12.35
2022-11-23T07:35:32.983Z,13.68
2022-11-23T07:38:19.139Z,14.45
2022-11-23T07:41:01.792Z,12.15
2022-11-23T07:44:01.681Z,11.35
2022-11-23T07:46:53.732Z,10.18
2022-11-23T07:49:41.114Z,11.05
2022-11-23T07:52:24.728Z,9.95
2022-11-23T07:55:08.113Z,9.30
2022-11-23T07:57:57.481Z,9.85
2022-11-23T08:00:40.294Z,9.90
2022-11-23T08:03:28.528Z,8.80
2022-11-23T08:06:10.070Z,9.05
2022-11-23T08:08:48.734Z,8.38
2022-11-23T08:11:37.157Z,10.73
2022-11-23T08:14:22.570Z,9.98
2022-11-23T08:17:09.719Z,9.60
2022-11-23T08:19:50.810Z,9.43
2022-11-23T08:22:42.103Z,9.85
2022-11-23T08:25:22.980Z,10.25
2022-11-23T08:28:08.728Z,9.98
2022-11-23T08:31:00.438Z,9.77
2022-11-23T08:33:45.752Z,8.57
2022-11-23T08:36:35.554Z,9.82
2022-11-23T08:39:22.462Z,11.48
2022-11-23T08:42:00.567Z,9.55
2022-11-23T08:44:53.561Z,8.75
2022-11-23T08:47:42.435Z,8.77
2022-11-23T08:50:23.167Z,7.85
2022-11-23T08:53:12.915Z,8.50
2022-11-23T08:55:56.267Z,8.52
2022-11-23T08:58:38.838Z,9.45
2022-11-23T09:01:23.505Z,8.63
2022-11-23T09:04:04.682Z,8.50
2022-11-23T09:06:50.510Z,7.82
2022-11-23T09:09:32.917Z,7.88
2022-11-23T09:12:17.697Z,8.98
2022-11-23T09:15:04.043Z,8.70
2022-11-23T09:17:53.834Z,8.85
2022-11-23T09:20:31.986Z,9.23
2022-11-23T09:23:15.064Z,8.35
2022-11-23T09:26:00.854Z,7.63
2022-11-23T09:28:45.050Z,9.15
2022-11-23T09:31:36.476Z,9.25
2022-11-23T09:34:14.465Z,7.65
2022-11-23T09:37:00.673Z,8.48
2022-11-23T09:39:43.538Z,7.90
2022-11-23T09:42:42.954Z,8.23
2022-11-23T09:45:53.343Z,8.52
2022-11-23T09:48:44.313Z,8.75
2022-11-23T09:51:31.225Z,7.90
2022-11-23T09:54:23.929Z,7.03
2022-11-23T09:57:06.328Z,7.40
2022-11-23T09:59:56.396Z,8.30
2022-11-23T10:02:37.865Z,8.63
2022-11-23T10:05:37.868Z,7.93
2022-11-23T10:08:40.809Z,8.15
2022-11-23T10:12:21.461Z,7.82
2022-11-23T10:15:20.899Z,7.88
2022-11-23T10:18:18.869Z,8.98
2022-11-23T10:21:19.486Z,8.82
2022-11-23T10:24:14.863Z,7.32
2022-11-23T10:26:57.957Z,7.80
2022-11-23T10:29:40.348Z,8.45
2022-11-23T10:32:36.176Z,7.32
2022-11-23T10:35:22.839Z,7.50
2022-11-23T10:38:19.486Z,8.35
2022-11-23T10:41:17.997Z,6.97
2022-11-23T10:44:40.827Z,7.72
2022-11-23T10:47:45.899Z,7.25
2022-11-23T10:50:44.961Z,6.95
2022-11-23T10:53:26.253Z,6.15
2022-11-23T10:56:20.602Z,7.40
2022-11-23T11:01:41.708Z,6.55
2022-11-23T11:04:26.020Z,5.45
2022-11-23T11:07:29.204Z,6.45
2022-11-23T11:10:27.716Z,6.53
2022-11-23T11:13:22.789Z,6.22
2022-11-23T11:16:44.020Z,6.82
2022-11-23T11:19:36.443Z,8.55
2022-11-23T11:22:25.839Z,7.32
2022-11-23T11:25:04.205Z,7.30
2022-11-23T11:27:36.843Z,6.97
2022-11-23T11:30:30.978Z,6.82
2022-11-23T11:33:46.668Z,6.00
2022-11-23T11:36:39.606Z,5.97
2022-11-23T11:39:31.563Z,6.22
2022-11-23T11:42:10.270Z,6.63
2022-11-23T11:44:49.963Z,8.32
2022-11-23T11:47:42.708Z,7.57
2022-11-23T11:50:36.950Z,6.72
2022-11-23T11:53:18.397Z,7.88
2022-11-23T11:56:15.998Z,8.38
2022-11-23T11:59:17.422Z,8.05
2022-11-23T12:02:23.277Z,7.25
2022-11-23T12:05:32.484Z,7.95
2022-11-23T12:09:15.138Z,9.23
2022-11-23T12:11:59.203Z,7.70
2022-11-23T12:14:37.129Z,7.78
2022-11-23T12:17:49.802Z,6.55
2022-11-23T12:20:57.177Z,7.85
2022-11-23T12:23:49.657Z,7.25
2022-11-23T12:26:29.213Z,7.85
2022-11-23T12:29:31.737Z,6.88
2022-11-23T12:32:56.536Z,11.52
2022-11-23T12:36:09.278Z,17.73
2022-11-23T12:39:28.567Z,18.38
2022-11-23T12:42:23.950Z,13.73
2022-11-23T12:45:41.682Z,14.55
2022-11-23T12:48:46.431Z,13.75
2022-11-23T12:51:36.952Z,16.38
2022-11-23T12:54:56.888Z,16.00
2022-11-23T12:57:57.850Z,16.00
2022-11-23T13:00:45.117Z,11.65
2022-11-23T13:03:53.662Z,12.57
2022-11-23T13:10:30.064Z,12.20
2022-11-23T13:13:33.978Z,11.20
2022-11-23T13:16:29.832Z,9.88
2022-11-23T13:19:41.103Z,11.35
2022-11-23T13:22:35.811Z,12.10
2022-11-23T13:25:25.338Z,11.52
2022-11-23T13:28:25.016Z,14.13
2022-11-23T13:31:23.878Z,15.88
2022-11-23T13:34:04.711Z,22.85
2022-11-23T13:40:18.171Z,19.85
2022-11-23T13:43:12.255Z,13.63
2022-11-23T13:46:43.714Z,13.13
2022-11-23T13:50:08.831Z,16.40
2022-11-23T13:52:54.284Z,14.60
2022-11-23T13:55:40.210Z,13.30
2022-11-23T13:58:30.374Z,14.02
2022-11-23T14:01:11.158Z,13.75
2022-11-23T14:04:19.042Z,14.02
2022-11-23T14:07:07.529Z,14.38
2022-11-23T14:10:06.714Z,14.57
2022-11-23T14:13:07.202Z,14.13
2022-11-23T14:15:49.346Z,15.85
2022-11-23T14:19:04.272Z,21.27
2022-11-23T14:22:03.425Z,31.42
2022-11-23T14:25:04.562Z,35.03
2022-11-23T14:28:02.723Z,34.25
2022-11-23T14:30:53.680Z,33.53
2022-11-23T14:33:49.070Z,24.38
2022-11-23T14:36:41.693Z,19.60
2022-11-23T14:40:06.744Z,17.35
2022-11-23T14:42:54.346Z,18.02
2022-11-23T14:45:36.419Z,20.50
2022-11-23T14:48:33.107Z,16.95
2022-11-23T14:53:55.444Z,14.30
2022-11-23T14:56:44.118Z,11.30
2022-11-23T14:59:40.734Z,12.98
2022-11-23T15:02:39.073Z,11.07
2022-11-23T15:05:16.519Z,12.27
2022-11-23T15:08:24.780Z,13.75
2022-11-23T15:11:16.105Z,23.23
2022-11-23T15:14:04.819Z,32.67
2022-11-23T15:16:51.687Z,41.67
2022-11-23T15:19:38.553Z,38.13
2022-11-23T15:22:18.707Z,46.05
2022-11-23T15:25:19.092Z,43.97
2022-11-23T15:28:05.372Z,33.25
2022-11-23T15:30:58.245Z,30.83
2022-11-23T15:33:37.622Z,33.90
2022-11-23T15:36:18.754Z,34.80
2022-11-23T15:38:57.444Z,30.73
2022-11-23T15:41:48.323Z,27.60
2022-11-23T15:44:41.754Z,22.80
2022-11-23T15:47:40.001Z,16.80
2022-11-23T15:50:32.699Z,14.55
2022-11-23T15:53:14.755Z,13.90
2022-11-23T15:55:51.040Z,13.68
2022-11-23T15:58:39.987Z,12.05
2022-11-23T16:01:19.714Z,10.77
2022-11-23T16:04:08.489Z,11.25
2022-11-23T16:06:56.672Z,10.30
2022-11-23T16:09:52.729Z,11.13
2022-11-23T16:12:47.818Z,9.93
2022-11-23T16:15:43.691Z,9.45
2022-11-23T16:18:25.767Z,9.65
2022-11-23T16:21:11.503Z,10.35
2022-11-23T16:24:04.637Z,10.77
2022-11-23T16:26:45.697Z,11.73
2022-11-23T16:29:41.911Z,9.70
2022-11-23T16:32:31.859Z,10.50
2022-11-23T16:35:20.199Z,8.77
2022-11-23T16:38:03.844Z,9.73
2022-11-23T16:40:48.131Z,11.38
2022-11-23T16:43:32.689Z,12.77
2022-11-23T16:46:04.576Z,14.13
2022-11-23T16:48:48.125Z,14.07
2022-11-23T16:51:32.449Z,14.32
2022-11-23T16:54:13.582Z,17.88
2022-11-23T16:56:52.820Z,19.35
2022-11-23T16:59:42.410Z,14.98
2022-11-23T17:02:27.098Z,14.75
2022-11-23T17:05:16.473Z,16.05
2022-11-23T17:07:54.729Z,16.83
2022-11-23T17:10:38.971Z,18.73
2022-11-23T17:13:25.058Z,20.60
2022-11-23T17:16:13.457Z,20.88
2022-11-23T17:18:51.002Z,20.35
2022-11-23T17:21:36.709Z,21.50
2022-11-23T17:24:19.905Z,22.73
2022-11-23T17:26:58.466Z,24.17
2022-11-23T17:29:41.939Z,23.98
2022-11-23T17:32:33.162Z,23.30
2022-11-23T17:35:12.467Z,22.30
2022-11-23T17:37:46.553Z,21.10
2022-11-23T17:40:38.655Z,26.20
2022-11-23T17:43:23.259Z,27.23
2022-11-23T17:46:07.107Z,26.45
2022-11-23T17:48:58.752Z,22.48
2022-11-23T17:51:44.759Z,22.55
2022-11-23T17:54:24.536Z,21.40
2022-11-23T17:57:08.299Z,23.33
2022-11-23T17:59:58.276Z,26.25
2022-11-23T18:02:50.007Z,26.85
2022-11-23T18:05:30.729Z,28.27
2022-11-23T18:08:11.497Z,33.25
2022-11-23T18:10:57.853Z,32.05
2022-11-23T18:13:37.692Z,30.33
2022-11-23T18:16:16.986Z,30.60
2022-11-23T18:19:05.923Z,33.30
2022-11-23T18:21:49.418Z,29.83
2022-11-23T18:24:29.110Z,29.27
2022-11-23T18:27:21.150Z,29.60
2022-11-23T18:30:16.664Z,25.95
2022-11-23T18:32:58.832Z,31.20
2022-11-23T18:35:37.853Z,26.55
2022-11-23T18:38:19.046Z,26.65
2022-11-23T18:41:16.768Z,25.33
2022-11-23T18:43:55.575Z,24.98
2022-11-23T18:46:30.595Z,25.83
2022-11-23T18:49:08.351Z,26.95
2022-11-23T18:51:47.546Z,32.13
2022-11-23T18:54:30.688Z,30.40
2022-11-23T18:57:17.002Z,28.00
2022-11-23T19:00:00.344Z,25.55
2022-11-23T19:02:50.081Z,22.88
2022-11-23T19:05:33.753Z,25.00
2022-11-23T19:08:17.383Z,23.80
2022-11-23T19:11:19.463Z,24.42
2022-11-23T19:14:12.274Z,23.90
2022-11-23T19:16:55.648Z,25.02
2022-11-23T19:19:50.313Z,23.67
2022-11-23T19:22:31.141Z,23.17
2022-11-23T19:25:13.654Z,23.08
2022-11-23T19:27:51.650Z,24.88
2022-11-23T19:30:38.169Z,27.05
2022-11-23T19:33:28.257Z,29.33
2022-11-23T19:36:13.447Z,27.33
2022-11-23T19:38:52.541Z,24.65
2022-11-23T19:41:36.354Z,25.10
2022-11-23T19:44:21.734Z,23.92
2022-11-23T19:46:54.709Z,18.20
2022-11-23T19:49:35.878Z,19.33
2022-11-23T19:52:22.171Z,25.55
2022-11-23T19:55:07.814Z,24.98
2022-11-23T19:57:45.940Z,26.63
2022-11-23T20:00:26.739Z,24.67
2022-11-23T20:05:57.495Z,24.25
2022-11-23T20:08:39.758Z,24.45
2022-11-23T20:11:34.681Z,25.90
2022-11-23T20:14:20.926Z,27.30
2022-11-23T20:17:07.209Z,27.98
2022-11-23T20:19:47.457Z,29.52
2022-11-23T20:22:29.144Z,28.63
2022-11-23T20:25:12.849Z,32.78
2022-11-23T20:27:54.111Z,30.73
2022-11-23T20:30:49.251Z,30.27
2022-11-23T20:33:26.694Z,32.67
2022-11-23T20:36:24.748Z,31.30
2022-11-23T20:39:16.117Z,29.63
2022-11-23T20:42:03.816Z,28.58
2022-11-23T20:44:45.680Z,26.65
2022-11-23T20:47:33.992Z,27.05
2022-11-23T20:50:25.109Z,28.50
2022-11-23T20:53:17.476Z,27.48
2022-11-23T20:56:07.213Z,25.80
2022-11-23T20:58:51.452Z,26.65
2022-11-23T21:01:30.768Z,27.88
2022-11-23T21:04:13.914Z,28.77
2022-11-23T21:06:54.652Z,28.63
2022-11-23T21:09:36.639Z,27.65
2022-11-23T21:12:33.776Z,28.08
2022-11-23T21:15:18.129Z,26.92
2022-11-23T21:18:07.682Z,27.55
2022-11-23T21:20:48.062Z,27.00
2022-11-23T21:23:37.206Z,26.65
2022-11-23T21:26:23.682Z,27.13
2022-11-23T21:31:53.843Z,24.73
2022-11-23T21:34:40.201Z,25.70
2022-11-23T21:37:27.240Z,27.65
2022-11-23T21:40:11.083Z,23.80
2022-11-23T21:42:58.241Z,24.80
2022-11-23T21:45:45.717Z,23.45
2022-11-23T21:48:51.704Z,24.33
2022-11-23T21:51:42.408Z,25.60
2022-11-23T21:54:26.694Z,26.25
2022-11-23T21:57:09.045Z,25.08
2022-11-23T21:59:53.656Z,26.17
2022-11-23T22:02:37.731Z,28.38
2022-11-23T22:05:24.068Z,25.60
2022-11-23T22:08:31.061Z,26.80
2022-11-23T22:11:19.741Z,25.70
2022-11-23T22:14:03.649Z,24.83
2022-11-23T22:19:32.697Z,26.25
2022-11-23T22:22:10.856Z,26.98
2022-11-23T22:24:54.385Z,27.45
2022-11-23T22:27:37.621Z,25.40
2022-11-23T22:30:27.902Z,25.00
2022-11-23T22:33:14.142Z,21.90
2022-11-23T22:36:04.703Z,23.63
2022-11-23T22:38:56.582Z,23.33
2022-11-23T22:41:47.590Z,22.50
2022-11-23T22:44:38.490Z,24.55
2022-11-23T22:47:26.138Z,22.67
2022-11-23T22:50:04.621Z,22.00
2022-11-23T22:52:48.252Z,22.52
2022-11-23T22:55:34.464Z,22.83
2022-11-23T22:58:26.226Z,21.35
2022-11-23T23:01:30.116Z,24.10
2022-11-23T23:04:13.986Z,24.88
2022-11-23T23:06:54.603Z,23.50
2022-11-23T23:09:43.326Z,23.77
2022-11-23T23:12:35.647Z,22.55
2022-11-23T23:15:21.929Z,24.33
2022-11-23T23:18:00.680Z,24.92
2022-11-23T23:20:45.494Z,24.15
2022-11-23T23:23:29.274Z,24.58
2022-11-23T23:26:17.312Z,23.00
2022-11-23T23:29:04.388Z,23.20
2022-11-23T23:31:52.857Z,24.45
2022-11-23T23:34:37.076Z,24.30
2022-11-23T23:37:23.031Z,22.67
2022-11-23T23:40:12.647Z,24.17
2022-11-23T23:43:04.020Z,22.42
2022-11-23T23:45:53.766Z,23.20
2022-11-23T23:48:25.859Z,22.38
2022-11-23T23:51:16.571Z,24.85
2022-11-23T23:54:03.319Z,25.17
2022-11-23T23:56:39.802Z,23.55
2022-11-23T23:59:28.891Z,22.48
